createdAt,value
2023-02-27T00:01:16.267Z,6.50
2023-02-27T00:03:18.986Z,8.33
2023-02-27T00:05:23.250Z,12.63
2023-02-27T00:07:28.715Z,10.67
2023-02-27T00:09:31.483Z,5.93
2023-02-27T00:11:34.183Z,11.30
2023-02-27T00:13:36.924Z,7.00
2023-02-27T00:15:40.992Z,13.30
2023-02-27T00:17:43.999Z,10.13
2023-02-27T00:19:46.718Z,9.10
2023-02-27T00:21:49.446Z,10.80
2023-02-27T00:23:53.496Z,8.83
2023-02-27T00:25:56.235Z,12.13
2023-02-27T00:27:58.960Z,15.43
2023-02-27T00:30:01.695Z,22.40
2023-02-27T00:32:04.558Z,11.73
2023-02-27T00:34:07.360Z,10.20
2023-02-27T00:36:10.067Z,14.00
2023-02-27T00:38:12.787Z,9.67
2023-02-27T00:40:16.991Z,10.07
2023-02-27T00:42:19.680Z,6.70
2023-02-27T00:44:22.474Z,8.63
2023-02-27T00:46:25.199Z,8.13
2023-02-27T00:48:27.941Z,14.03
2023-02-27T00:50:30.649Z,12.90
2023-02-27T00:52:34.553Z,8.87
2023-02-27T00:54:37.278Z,25.13
2023-02-27T00:56:42.463Z,12.57
2023-02-27T00:58:45.174Z,12.43
2023-02-27T01:00:47.943Z,10.87
2023-02-27T01:02:50.857Z,9.70
2023-02-27T01:04:53.619Z,12.93
2023-02-27T01:06:56.332Z,8.87
2023-02-27T01:08:59.039Z,11.27
2023-02-27T01:11:01.803Z,9.90
2023-02-27T01:13:05.855Z,6.50
2023-02-27T01:15:09.964Z,9.27
2023-02-27T01:17:12.773Z,11.93
2023-02-27T01:19:15.600Z,9.97
2023-02-27T01:21:18.360Z,8.60
2023-02-27T01:23:21.440Z,9.77
2023-02-27T01:25:24.146Z,8.00
2023-02-27T01:27:26.941Z,11.40
2023-02-27T01:29:31.016Z,14.60
2023-02-27T01:31:33.802Z,8.83
2023-02-27T01:33:36.574Z,11.80
2023-02-27T01:35:39.283Z,10.03
2023-02-27T01:37:42.195Z,11.40
2023-02-27T01:39:44.964Z,8.90
2023-02-27T01:41:47.693Z,10.90
2023-02-27T01:43:58.191Z,10.40
2023-02-27T01:46:02.296Z,8.53
2023-02-27T01:48:09.014Z,10.13
2023-02-27T01:50:12.151Z,9.97
2023-02-27T01:52:16.270Z,14.13
2023-02-27T01:54:20.497Z,15.83
2023-02-27T01:56:25.699Z,12.23
2023-02-27T01:58:28.455Z,17.73
2023-02-27T02:00:31.166Z,13.50
2023-02-27T02:02:37.566Z,8.93
2023-02-27T02:04:40.819Z,14.20
2023-02-27T02:06:46.136Z,11.07
2023-02-27T02:08:50.374Z,7.90
2023-02-27T02:10:53.181Z,7.07
2023-02-27T02:12:55.888Z,7.83
2023-02-27T02:14:58.635Z,9.93
2023-02-27T02:17:09.646Z,10.53
2023-02-27T02:19:31.172Z,10.47
2023-02-27T02:22:07.335Z,11.13
2023-02-27T02:24:41.364Z,9.37
2023-02-27T02:26:48.599Z,8.27
2023-02-27T02:29:17.587Z,16.07
2023-02-27T02:31:45.653Z,14.73
2023-02-27T02:34:36.474Z,16.27
2023-02-27T02:37:06.410Z,7.57
2023-02-27T02:39:33.360Z,9.50
2023-02-27T02:41:43.433Z,17.67
2023-02-27T02:43:50.137Z,9.83
2023-02-27T02:45:55.591Z,11.70
2023-02-27T02:48:02.881Z,16.53
2023-02-27T02:50:09.965Z,11.40
2023-02-27T02:52:15.392Z,9.85
2023-02-27T02:54:18.835Z,12.87
2023-02-27T02:56:24.566Z,7.40
2023-02-27T02:58:28.941Z,13.57
2023-02-27T03:00:32.941Z,7.30
2023-02-27T03:02:37.369Z,11.53
2023-02-27T03:04:41.635Z,11.33
2023-02-27T03:06:46.123Z,8.30
2023-02-27T03:08:52.109Z,16.90
2023-02-27T03:10:57.626Z,10.90
2023-02-27T03:13:03.065Z,6.97
2023-02-27T03:15:07.864Z,14.23
2023-02-27T03:17:11.625Z,14.60
2023-02-27T03:19:15.742Z,9.87
2023-02-27T03:21:22.620Z,16.70
2023-02-27T03:23:28.115Z,15.80
2023-02-27T03:25:30.833Z,13.73
2023-02-27T03:27:34.670Z,11.90
2023-02-27T03:29:41.372Z,10.80
2023-02-27T03:31:46.072Z,12.33
2023-02-27T03:33:50.048Z,10.90
2023-02-27T03:35:54.577Z,13.47
2023-02-27T03:37:59.215Z,9.30
2023-02-27T03:40:05.149Z,9.60
2023-02-27T03:42:11.642Z,9.10
2023-02-27T03:44:15.985Z,8.60
2023-02-27T03:46:21.016Z,14.75
2023-02-27T03:48:23.823Z,14.30
2023-02-27T03:50:26.564Z,11.17
2023-02-27T03:52:29.667Z,13.63
2023-02-27T03:54:33.541Z,14.00
2023-02-27T03:56:38.958Z,13.40
2023-02-27T03:58:41.669Z,10.30
2023-02-27T04:00:44.415Z,11.03
2023-02-27T04:02:50.550Z,10.03
2023-02-27T04:04:53.311Z,16.63
2023-02-27T04:07:16.318Z,14.73
2023-02-27T04:09:23.231Z,9.83
2023-02-27T04:11:32.516Z,16.20
2023-02-27T04:13:48.557Z,8.40
2023-02-27T04:16:00.674Z,9.80
2023-02-27T04:18:11.594Z,14.83
2023-02-27T04:20:19.384Z,10.60
2023-02-27T04:22:29.861Z,14.90
2023-02-27T04:24:36.672Z,11.40
2023-02-27T04:26:41.168Z,7.23
2023-02-27T04:28:45.641Z,7.83
2023-02-27T04:31:00.555Z,11.87
2023-02-27T04:33:08.425Z,7.37
2023-02-27T04:35:12.428Z,9.67
2023-02-27T04:37:18.104Z,8.37
2023-02-27T04:39:22.699Z,13.13
2023-02-27T04:41:27.686Z,10.83
2023-02-27T04:43:30.563Z,8.23
2023-02-27T04:45:33.327Z,10.37
2023-02-27T04:47:37.878Z,8.37
2023-02-27T04:49:43.381Z,8.53
2023-02-27T04:51:48.565Z,7.77
2023-02-27T04:53:53.428Z,16.63
2023-02-27T04:55:58.256Z,10.43
2023-02-27T04:58:03.122Z,9.00
2023-02-27T05:00:09.357Z,15.60
2023-02-27T05:02:13.714Z,11.00
2023-02-27T05:04:18.225Z,8.90
2023-02-27T05:06:23.376Z,9.43
2023-02-27T05:08:29.818Z,7.93
2023-02-27T05:10:35.752Z,19.33
2023-02-27T05:12:40.828Z,9.77
2023-02-27T05:14:44.817Z,9.20
2023-02-27T05:16:50.030Z,7.43
2023-02-27T05:18:52.732Z,8.00
2023-02-27T05:21:00.385Z,5.80
2023-02-27T05:23:07.295Z,10.53
2023-02-27T05:25:12.142Z,8.37
2023-02-27T05:27:19.780Z,8.80
2023-02-27T05:29:25.508Z,10.73
2023-02-27T05:31:30.755Z,7.13
2023-02-27T05:33:34.500Z,7.93
2023-02-27T05:35:39.236Z,8.60
2023-02-27T05:37:44.760Z,7.73
2023-02-27T05:39:48.822Z,10.00
2023-02-27T05:41:53.766Z,8.63
2023-02-27T05:43:59.015Z,7.07
2023-02-27T05:46:03.994Z,14.20
2023-02-27T05:48:08.629Z,13.07
2023-02-27T05:50:12.800Z,9.00
2023-02-27T05:52:17.256Z,13.67
2023-02-27T05:54:23.848Z,13.40
2023-02-27T05:56:28.176Z,8.27
2023-02-27T05:58:32.514Z,11.03
2023-02-27T06:00:37.675Z,10.53
2023-02-27T06:02:40.435Z,7.97
2023-02-27T06:04:43.178Z,8.23
2023-02-27T06:06:45.910Z,13.10
2023-02-27T06:08:48.945Z,20.97
2023-02-27T06:10:51.852Z,13.67
2023-02-27T06:12:55.953Z,33.17
2023-02-27T06:14:58.668Z,12.87
2023-02-27T06:17:01.714Z,15.23
2023-02-27T06:19:05.087Z,15.43
2023-02-27T06:21:07.862Z,10.57
2023-02-27T06:23:11.023Z,12.53
2023-02-27T06:25:13.742Z,20.60
2023-02-27T06:27:16.455Z,20.43
2023-02-27T06:29:20.529Z,9.50
2023-02-27T06:31:23.244Z,9.07
2023-02-27T06:33:26.837Z,10.53
2023-02-27T06:35:30.031Z,12.83
2023-02-27T06:37:32.730Z,11.63
2023-02-27T06:39:35.449Z,15.53
2023-02-27T06:41:38.161Z,10.33
2023-02-27T06:43:40.860Z,11.80
2023-02-27T06:45:44.937Z,11.00
2023-02-27T06:47:47.708Z,12.33
2023-02-27T06:49:50.440Z,8.63
2023-02-27T06:51:53.140Z,12.50
2023-02-27T06:53:56.197Z,12.40
2023-02-27T06:56:01.421Z,10.93
2023-02-27T06:58:04.129Z,8.30
2023-02-27T07:00:08.281Z,14.63
2023-02-27T07:02:13.129Z,14.43
2023-02-27T07:04:16.055Z,12.50
2023-02-27T07:06:18.907Z,10.10
2023-02-27T07:08:21.612Z,12.77
2023-02-27T07:10:24.333Z,16.17
2023-02-27T07:12:27.132Z,9.43
2023-02-27T07:14:29.873Z,15.63
2023-02-27T07:16:32.610Z,14.33
2023-02-27T07:18:36.665Z,14.93
2023-02-27T07:20:40.072Z,13.17
2023-02-27T07:22:42.775Z,15.80
2023-02-27T07:24:45.979Z,8.80
2023-02-27T07:26:49.719Z,12.77
2023-02-27T07:28:52.435Z,13.60
2023-02-27T07:30:55.788Z,8.90
2023-02-27T07:32:58.585Z,16.10
2023-02-27T07:35:03.381Z,11.07
2023-02-27T07:37:06.118Z,9.37
2023-02-27T07:39:10.603Z,11.00
2023-02-27T07:41:28.387Z,7.83
2023-02-27T07:43:32.881Z,10.47
2023-02-27T07:45:35.605Z,9.10
2023-02-27T07:47:38.314Z,15.20
2023-02-27T07:49:41.087Z,9.10
2023-02-27T07:51:45.134Z,12.30
2023-02-27T07:53:47.856Z,11.77
2023-02-27T07:55:50.597Z,12.63
2023-02-27T07:57:53.295Z,9.67
2023-02-27T07:59:55.996Z,8.37
2023-02-27T08:01:58.717Z,11.47
2023-02-27T08:04:01.411Z,12.33
2023-02-27T08:06:04.333Z,10.83
2023-02-27T08:08:08.404Z,14.70
2023-02-27T08:10:12.676Z,13.97
2023-02-27T08:12:15.387Z,12.70
2023-02-27T08:14:18.098Z,12.60
2023-02-27T08:16:21.231Z,14.73
2023-02-27T08:18:23.951Z,8.00
2023-02-27T08:20:26.673Z,9.90
2023-02-27T08:22:29.385Z,12.27
2023-02-27T08:24:33.496Z,16.70
2023-02-27T08:26:36.271Z,16.10
2023-02-27T08:28:39.334Z,12.17
2023-02-27T08:30:42.049Z,13.90
2023-02-27T08:32:45.488Z,13.50
2023-02-27T08:34:48.193Z,10.90
2023-02-27T08:36:51.105Z,10.17
2023-02-27T08:38:53.844Z,8.17
2023-02-27T08:40:57.904Z,11.83
2023-02-27T08:43:01.240Z,9.70
2023-02-27T08:45:04.153Z,16.20
2023-02-27T08:47:06.885Z,13.47
2023-02-27T08:49:09.585Z,13.90
2023-02-27T08:51:12.335Z,15.50
2023-02-27T08:53:15.085Z,11.53
2023-02-27T08:55:17.957Z,11.20
2023-02-27T08:57:22.008Z,12.27
2023-02-27T08:59:24.925Z,15.23
2023-02-27T09:01:32.789Z,10.63
2023-02-27T09:03:37.314Z,22.43
2023-02-27T09:05:40.048Z,13.60
2023-02-27T09:07:42.756Z,12.20
2023-02-27T09:09:45.618Z,18.10
2023-02-27T09:11:48.363Z,15.30
2023-02-27T09:13:52.770Z,12.93
2023-02-27T09:15:55.727Z,21.73
2023-02-27T09:18:02.766Z,9.93
2023-02-27T09:20:09.211Z,16.80
2023-02-27T09:22:11.985Z,14.00
2023-02-27T09:24:20.441Z,12.03
2023-02-27T09:26:39.775Z,14.77
2023-02-27T09:28:44.850Z,10.60
2023-02-27T09:30:48.913Z,18.53
2023-02-27T09:32:51.867Z,17.53
2023-02-27T09:34:54.793Z,20.43
2023-02-27T09:36:59.836Z,19.00
2023-02-27T09:39:02.661Z,9.90
2023-02-27T09:41:06.008Z,18.83
2023-02-27T09:43:10.993Z,12.53
2023-02-27T09:45:17.392Z,12.17
2023-02-27T09:47:24.353Z,13.90
2023-02-27T09:49:29.122Z,18.80
2023-02-27T09:51:31.957Z,12.27
2023-02-27T09:53:37.327Z,18.93
2023-02-27T09:55:40.651Z,17.97
2023-02-27T09:57:45.495Z,14.47
2023-02-27T09:59:49.316Z,11.13
2023-02-27T10:01:53.722Z,11.90
2023-02-27T10:04:08.840Z,10.60
2023-02-27T10:06:22.229Z,20.57
2023-02-27T10:08:27.189Z,11.20
2023-02-27T10:10:32.677Z,11.70
2023-02-27T10:12:44.044Z,18.43
2023-02-27T10:14:47.846Z,12.10
2023-02-27T10:16:50.689Z,20.47
2023-02-27T10:18:55.871Z,9.67
2023-02-27T10:21:01.575Z,13.90
2023-02-27T10:23:06.110Z,21.40
2023-02-27T10:25:29.675Z,10.03
2023-02-27T10:27:33.475Z,11.47
2023-02-27T10:29:39.583Z,15.57
2023-02-27T10:31:42.406Z,9.30
2023-02-27T10:33:47.912Z,6.90
2023-02-27T10:35:52.083Z,13.93
2023-02-27T10:37:58.885Z,9.20
2023-02-27T10:40:04.336Z,10.40
2023-02-27T10:42:07.585Z,10.90
2023-02-27T10:44:11.362Z,8.50
2023-02-27T10:46:15.068Z,7.37
2023-02-27T10:48:17.939Z,7.40
2023-02-27T10:50:29.187Z,12.40
2023-02-27T10:52:31.902Z,11.47
2023-02-27T10:54:37.045Z,7.87
2023-02-27T10:56:40.114Z,7.67
2023-02-27T10:58:42.813Z,10.87
2023-02-27T11:00:48.003Z,10.30
2023-02-27T11:02:51.977Z,16.10
2023-02-27T11:04:55.557Z,6.23
2023-02-27T11:06:58.589Z,8.30
2023-02-27T11:09:18.772Z,8.53
2023-02-27T11:11:23.208Z,9.80
2023-02-27T11:13:26.988Z,7.33
2023-02-27T11:15:30.945Z,8.70
2023-02-27T11:17:35.442Z,10.77
2023-02-27T11:19:38.942Z,15.27
2023-02-27T11:21:41.663Z,9.77
2023-02-27T11:23:54.530Z,8.13
2023-02-27T11:26:10.921Z,7.17
2023-02-27T11:28:21.204Z,7.30
2023-02-27T11:30:26.969Z,10.30
2023-02-27T11:32:33.054Z,13.23
2023-02-27T11:34:37.205Z,4.37
2023-02-27T11:36:40.916Z,7.63
2023-02-27T11:38:44.122Z,8.27
2023-02-27T11:40:50.608Z,7.10
2023-02-27T11:42:53.939Z,10.07
2023-02-27T11:45:01.337Z,11.60
2023-02-27T11:47:13.199Z,8.43
2023-02-27T11:49:29.180Z,9.93
2023-02-27T11:51:47.625Z,5.37
2023-02-27T11:54:11.842Z,7.40
2023-02-27T11:56:17.756Z,5.77
2023-02-27T11:58:22.029Z,7.43
2023-02-27T12:00:28.036Z,7.10
2023-02-27T12:02:32.394Z,4.90
2023-02-27T12:04:44.835Z,7.30
2023-02-27T12:06:50.183Z,6.13
2023-02-27T12:08:55.369Z,6.57
2023-02-27T12:11:12.898Z,5.07
2023-02-27T12:13:18.185Z,7.23
2023-02-27T12:15:27.094Z,5.67
2023-02-27T12:17:33.162Z,3.97
2023-02-27T12:19:39.292Z,5.80
2023-02-27T12:21:43.288Z,5.17
2023-02-27T12:23:47.531Z,6.17
2023-02-27T12:25:52.583Z,6.67
2023-02-27T12:27:56.670Z,5.27
2023-02-27T12:30:02.428Z,5.40
2023-02-27T12:32:09.664Z,3.83
2023-02-27T12:34:28.493Z,5.90
2023-02-27T12:36:31.245Z,4.57
2023-02-27T12:38:36.170Z,7.17
2023-02-27T12:40:40.290Z,7.33
2023-02-27T12:43:07.546Z,8.13
2023-02-27T12:45:19.496Z,9.67
2023-02-27T12:47:26.557Z,6.27
2023-02-27T12:49:39.013Z,6.60
2023-02-27T12:51:45.592Z,6.83
2023-02-27T12:54:04.565Z,4.57
2023-02-27T12:56:09.062Z,5.77
2023-02-27T12:58:23.101Z,4.93
2023-02-27T13:00:27.113Z,6.70
2023-02-27T13:02:41.706Z,5.80
2023-02-27T13:04:45.967Z,5.97
2023-02-27T13:06:50.882Z,4.93
2023-02-27T13:09:17.054Z,6.40
2023-02-27T13:11:24.408Z,4.20
2023-02-27T13:13:28.538Z,8.83
2023-02-27T13:15:32.317Z,9.67
2023-02-27T13:17:39.625Z,9.70
2023-02-27T13:19:43.751Z,11.10
2023-02-27T13:21:47.839Z,5.50
2023-02-27T13:24:00.913Z,9.80
2023-02-27T13:26:15.746Z,10.50
2023-02-27T13:28:20.874Z,7.43
2023-02-27T13:30:25.502Z,5.47
2023-02-27T13:32:43.228Z,7.30
2023-02-27T13:34:49.148Z,10.80
2023-02-27T13:36:53.209Z,4.30
2023-02-27T13:38:56.760Z,4.27
2023-02-27T13:40:59.825Z,5.30
2023-02-27T13:43:07.327Z,6.03
2023-02-27T13:45:50.548Z,12.90
2023-02-27T13:47:54.979Z,3.53
2023-02-27T13:50:01.508Z,4.60
2023-02-27T13:52:04.212Z,13.23
2023-02-27T13:54:25.692Z,9.33
2023-02-27T13:56:28.383Z,5.13
2023-02-27T13:58:31.100Z,5.43
2023-02-27T14:00:34.309Z,6.03
2023-02-27T14:02:52.949Z,5.90
2023-02-27T14:05:04.364Z,4.83
2023-02-27T14:07:08.196Z,3.57
2023-02-27T14:09:15.248Z,7.07
2023-02-27T14:11:21.380Z,5.37
2023-02-27T14:13:58.796Z,7.70
2023-02-27T14:16:01.647Z,7.40
2023-02-27T14:18:17.918Z,6.37
2023-02-27T14:20:51.204Z,7.30
2023-02-27T14:23:16.174Z,5.57
2023-02-27T14:25:21.983Z,4.20
2023-02-27T14:27:26.176Z,7.00
2023-02-27T14:29:31.236Z,5.73
2023-02-27T14:31:35.101Z,6.80
2023-02-27T14:33:41.497Z,5.30
2023-02-27T14:35:48.040Z,7.00
2023-02-27T14:37:53.474Z,16.53
2023-02-27T14:39:56.967Z,8.43
2023-02-27T14:42:11.835Z,7.20
2023-02-27T14:44:19.387Z,5.67
2023-02-27T14:46:24.968Z,6.17
2023-02-27T14:48:28.508Z,7.00
2023-02-27T14:50:34.098Z,5.93
2023-02-27T14:52:42.644Z,7.13
2023-02-27T14:54:46.872Z,8.50
2023-02-27T14:56:55.032Z,12.03
2023-02-27T14:59:04.293Z,5.33
2023-02-27T15:01:08.673Z,7.53
2023-02-27T15:03:19.094Z,5.53
2023-02-27T15:05:23.572Z,5.60
2023-02-27T15:07:28.527Z,9.03
2023-02-27T15:09:34.580Z,6.43
2023-02-27T15:11:41.234Z,10.77
2023-02-27T15:13:45.223Z,8.13
2023-02-27T15:15:48.745Z,5.10
2023-02-27T15:17:52.712Z,7.63
2023-02-27T15:19:56.543Z,8.57
2023-02-27T15:22:00.211Z,16.83
2023-02-27T15:24:03.933Z,6.70
2023-02-27T15:26:06.736Z,20.57
2023-02-27T15:28:27.654Z,6.33
2023-02-27T15:30:30.745Z,5.70
2023-02-27T15:32:34.827Z,10.50
2023-02-27T15:34:37.509Z,8.30
2023-02-27T15:36:40.193Z,9.10
2023-02-27T15:38:42.911Z,5.40
2023-02-27T15:40:45.620Z,5.33
2023-02-27T15:42:48.341Z,4.03
2023-02-27T15:44:52.865Z,6.67
2023-02-27T15:46:55.670Z,5.07
2023-02-27T15:48:58.389Z,8.70
2023-02-27T15:51:03.008Z,5.50
2023-02-27T15:53:09.792Z,5.83
2023-02-27T15:55:15.602Z,5.47
2023-02-27T15:57:18.302Z,8.20
2023-02-27T15:59:21.015Z,5.70
2023-02-27T16:01:26.355Z,8.10
2023-02-27T16:03:32.935Z,9.60
2023-02-27T16:05:36.647Z,5.70
2023-02-27T16:07:40.443Z,7.20
2023-02-27T16:09:43.944Z,4.97
2023-02-27T16:11:46.719Z,4.37
2023-02-27T16:13:49.779Z,6.10
2023-02-27T16:15:59.797Z,10.50
2023-02-27T16:18:06.725Z,3.77
2023-02-27T16:20:38.405Z,4.87
2023-02-27T16:23:04.210Z,2.77
2023-02-27T16:25:10.985Z,5.60
2023-02-27T16:27:17.324Z,6.40
2023-02-27T16:29:20.660Z,9.87
2023-02-27T16:31:28.379Z,3.63
2023-02-27T16:33:34.100Z,6.20
2023-02-27T16:35:39.308Z,11.93
2023-02-27T16:37:43.090Z,4.50
2023-02-27T16:39:45.781Z,4.27
2023-02-27T16:41:49.390Z,6.43
2023-02-27T16:43:53.454Z,6.63
2023-02-27T16:45:56.431Z,7.53
2023-02-27T16:48:00.117Z,11.93
2023-02-27T16:50:04.304Z,6.77
2023-02-27T16:52:08.418Z,4.30
2023-02-27T16:54:13.117Z,5.23
2023-02-27T16:56:17.093Z,7.40
2023-02-27T16:58:20.861Z,7.63
2023-02-27T17:00:23.846Z,5.60
2023-02-27T17:02:26.552Z,12.10
2023-02-27T17:04:29.621Z,17.10
2023-02-27T17:06:33.831Z,10.37
2023-02-27T17:08:36.570Z,20.93
2023-02-27T17:10:39.379Z,11.13
2023-02-27T17:12:43.993Z,12.03
2023-02-27T17:14:47.009Z,14.03
2023-02-27T17:16:49.724Z,12.70
2023-02-27T17:18:52.441Z,11.83
2023-02-27T17:20:56.945Z,15.70
2023-02-27T17:23:00.994Z,23.20
2023-02-27T17:25:03.761Z,18.13
2023-02-27T17:27:06.483Z,14.33
2023-02-27T17:29:09.678Z,10.80
2023-02-27T17:31:13.194Z,8.93
2023-02-27T17:33:15.958Z,15.77
2023-02-27T17:35:18.786Z,14.03
2023-02-27T17:37:21.586Z,14.70
2023-02-27T17:39:25.632Z,10.90
2023-02-27T17:41:28.428Z,24.73
2023-02-27T17:43:31.115Z,8.70
2023-02-27T17:45:33.825Z,8.60
2023-02-27T17:47:36.532Z,10.03
2023-02-27T17:49:39.243Z,9.20
2023-02-27T17:51:42.025Z,7.33
2023-02-27T17:53:45.084Z,10.87
2023-02-27T17:55:49.105Z,7.23
2023-02-27T17:57:51.783Z,10.83
2023-02-27T17:59:54.467Z,8.97
2023-02-27T18:01:57.134Z,7.87
2023-02-27T18:03:59.862Z,10.43
2023-02-27T18:06:02.679Z,7.10
2023-02-27T18:08:05.418Z,7.90
2023-02-27T18:10:09.922Z,10.00
2023-02-27T18:12:13.977Z,16.50
2023-02-27T18:14:16.757Z,12.53
2023-02-27T18:16:21.873Z,9.50
2023-02-27T18:18:24.757Z,20.40
2023-02-27T18:20:27.433Z,9.63
2023-02-27T18:22:32.806Z,16.83
2023-02-27T18:24:35.564Z,18.97
2023-02-27T18:26:38.629Z,19.13
2023-02-27T18:28:42.863Z,17.73
2023-02-27T18:30:45.587Z,18.37
2023-02-27T18:32:48.305Z,14.07
2023-02-27T18:34:51.085Z,19.27
2023-02-27T18:36:53.763Z,12.90
2023-02-27T18:38:56.471Z,17.03
2023-02-27T18:40:59.484Z,10.85
2023-02-27T18:43:02.176Z,16.50
2023-02-27T18:45:07.248Z,13.90
2023-02-27T18:47:11.996Z,15.67
2023-02-27T18:49:15.665Z,12.97
2023-02-27T18:51:18.438Z,16.10
2023-02-27T18:53:21.123Z,15.70
2023-02-27T18:55:23.827Z,17.60
2023-02-27T18:57:26.575Z,14.27
2023-02-27T18:59:29.276Z,14.30
2023-02-27T19:01:34.319Z,9.70
2023-02-27T19:03:37.075Z,20.80
2023-02-27T19:05:41.850Z,14.83
2023-02-27T19:07:44.527Z,23.40
2023-02-27T19:09:47.256Z,24.53
2023-02-27T19:11:49.985Z,26.33
2023-02-27T19:13:52.714Z,19.97
2023-02-27T19:15:55.741Z,14.20
2023-02-27T19:17:59.761Z,17.03
2023-02-27T19:20:02.475Z,15.10
2023-02-27T19:22:05.200Z,12.10
2023-02-27T19:24:09.038Z,15.67
2023-02-27T19:26:11.721Z,20.40
2023-02-27T19:28:14.799Z,15.23
2023-02-27T19:30:17.823Z,10.67
2023-02-27T19:32:21.197Z,10.33
2023-02-27T19:34:25.233Z,10.60
2023-02-27T19:36:28.893Z,12.27
2023-02-27T19:38:31.843Z,11.57
2023-02-27T19:40:34.562Z,18.03
2023-02-27T19:42:37.285Z,19.67
2023-02-27T19:44:41.137Z,22.33
2023-02-27T19:46:46.276Z,20.27
2023-02-27T19:48:49.009Z,30.90
2023-02-27T19:50:53.386Z,43.57
2023-02-27T19:52:56.123Z,39.90
2023-02-27T19:54:58.807Z,35.03
2023-02-27T19:57:01.493Z,29.60
2023-02-27T19:59:04.222Z,32.13
2023-02-27T20:01:07.085Z,35.80
2023-02-27T20:03:09.786Z,27.03
2023-02-27T20:05:12.659Z,24.57
2023-02-27T20:07:18.664Z,21.73
2023-02-27T20:09:23.136Z,19.03
2023-02-27T20:11:27.031Z,19.60
2023-02-27T20:13:29.738Z,22.30
2023-02-27T20:15:32.717Z,26.70
2023-02-27T20:17:35.962Z,17.50
2023-02-27T20:19:38.974Z,17.53
2023-02-27T20:21:41.759Z,16.47
2023-02-27T20:23:46.228Z,25.00
2023-02-27T20:25:48.929Z,26.87
2023-02-27T20:27:51.625Z,21.20
2023-02-27T20:29:55.792Z,17.27
2023-02-27T20:31:58.622Z,17.57
2023-02-27T20:34:01.682Z,20.33
2023-02-27T20:36:04.933Z,35.57
2023-02-27T20:38:07.730Z,38.60
2023-02-27T20:40:13.512Z,30.17
2023-02-27T20:42:16.196Z,24.80
2023-02-27T20:44:19.148Z,21.83
2023-02-27T20:46:22.732Z,12.53
2023-02-27T20:48:25.416Z,14.77
2023-02-27T20:50:28.157Z,16.00
2023-02-27T20:52:30.832Z,12.10
2023-02-27T20:54:33.552Z,19.20
2023-02-27T20:56:40.520Z,22.10
2023-02-27T20:58:43.221Z,15.03
2023-02-27T21:00:45.942Z,12.70
2023-02-27T21:02:48.621Z,17.40
2023-02-27T21:04:53.130Z,14.60
2023-02-27T21:06:55.945Z,12.17
2023-02-27T21:08:58.696Z,9.80
2023-02-27T21:11:01.405Z,17.30
2023-02-27T21:13:05.429Z,20.07
2023-02-27T21:15:09.030Z,20.73
2023-02-27T21:17:12.275Z,13.63
2023-02-27T21:19:14.973Z,15.73
2023-02-27T21:21:18.948Z,17.77
2023-02-27T21:23:21.624Z,17.80
2023-02-27T21:25:24.626Z,16.03
2023-02-27T21:27:27.354Z,19.83
2023-02-27T21:29:31.382Z,13.13
2023-02-27T21:31:35.041Z,14.17
2023-02-27T21:33:37.741Z,15.40
2023-02-27T21:35:45.526Z,18.97
2023-02-27T21:37:48.883Z,17.57
2023-02-27T21:39:55.111Z,20.07
2023-02-27T21:41:59.449Z,16.17
2023-02-27T21:44:02.589Z,18.37
2023-02-27T21:46:07.362Z,21.37
2023-02-27T21:48:10.172Z,18.07
2023-02-27T21:50:14.700Z,16.93
2023-02-27T21:52:17.384Z,23.53
2023-02-27T21:54:20.664Z,18.37
2023-02-27T21:56:23.352Z,15.23
2023-02-27T21:58:26.038Z,20.63
2023-02-27T22:00:30.738Z,16.03
2023-02-27T22:02:34.790Z,22.93
2023-02-27T22:04:37.506Z,16.57
2023-02-27T22:06:40.171Z,14.13
2023-02-27T22:08:42.878Z,16.00
2023-02-27T22:10:46.680Z,22.07
2023-02-27T22:12:49.398Z,27.50
2023-02-27T22:14:52.096Z,19.47
2023-02-27T22:16:54.904Z,30.90
2023-02-27T22:18:58.931Z,112.17
2023-02-27T22:21:01.665Z,70.93
2023-02-27T22:23:04.616Z,41.30
2023-02-27T22:25:07.741Z,23.10
2023-02-27T22:27:10.508Z,21.10
2023-02-27T22:29:13.171Z,20.53
2023-02-27T22:31:17.351Z,13.90
2023-02-27T22:33:20.077Z,14.80
2023-02-27T22:35:24.347Z,15.23
2023-02-27T22:37:27.075Z,16.20
2023-02-27T22:39:30.075Z,17.60
2023-02-27T22:41:33.856Z,13.27
2023-02-27T22:43:38.229Z,13.30
2023-02-27T22:45:46.468Z,10.33
2023-02-27T22:47:49.154Z,13.20
2023-02-27T22:49:51.886Z,13.97
2023-02-27T22:51:55.940Z,23.00
2023-02-27T22:53:59.510Z,43.73
2023-02-27T22:56:02.360Z,60.60
2023-02-27T22:58:05.058Z,22.90
2023-02-27T23:00:11.604Z,23.47
2023-02-27T23:02:14.314Z,25.73
2023-02-27T23:04:17.919Z,16.27
2023-02-27T23:06:23.130Z,22.60
2023-02-27T23:08:27.175Z,17.10
2023-02-27T23:10:29.872Z,17.00
2023-02-27T23:12:32.601Z,30.53
2023-02-27T23:14:35.482Z,23.10
2023-02-27T23:16:38.276Z,18.60
2023-02-27T23:18:41.225Z,17.63
2023-02-27T23:20:43.975Z,19.10
2023-02-27T23:22:46.668Z,15.93
2023-02-27T23:24:50.874Z,15.30
2023-02-27T23:26:53.663Z,19.10
2023-02-27T23:28:56.399Z,14.07
2023-02-27T23:30:59.460Z,15.97
2023-02-27T23:33:02.264Z,16.07
2023-02-27T23:35:05.726Z,17.67
2023-02-27T23:37:08.432Z,12.83
2023-02-27T23:39:11.136Z,15.53
2023-02-27T23:41:17.349Z,15.40
2023-02-27T23:43:37.501Z,14.17
2023-02-27T23:45:40.304Z,19.48
2023-02-27T23:47:43.661Z,11.40
2023-02-27T23:49:46.370Z,16.20
2023-02-27T23:51:49.096Z,13.43
2023-02-27T23:53:52.561Z,17.50
2023-02-27T23:55:55.293Z,10.07
2023-02-27T23:58:00.386Z,17.83
